»·PEaware :: AAL2490 KPHX-KSNA

AAL2490 :: KPHX-KSNA

FLIGHT INFORMATION

Flight Status: Arrived
Operator:
American Airlines
More flights by this operator :: More flights under this callsign
Pilot: Drew L. (13237)
Aircraft: AIRBUS A321
(A321)
More flights by this aircraft type
Origin: KPHX Phoenix Sky Harbor Intl
United States
Destination: KSNA John Wayne-Orange Co
United States
More flights between these airports :: More routes between these airports
Route: +KEENS2 HRRBR EMLLD DSNEE4
File this flight plan on PilotEdge
Remarks: RMK / SIMBRIEF
Altitude:
(Current/Filed)
28,000ft
Speed:
(Current/Filed)
452kts
Departed: 12-Oct-20 06:47 PM
Arrived: 12-Oct-20 07:37 PM
Distance/Time
Traveled:
293nm/0:50
Distance/Time
To Go:
Arrived

Flight Plot

Page will automatically refresh every two minutes.

Flight plan parsing failed; only flown route is shown


Map Options




Map Legend


Flown Route
Filed Route
Departure Airport
Arrival Airport
Navaid (VOR, NDB)
Fix

Horizontal Profiles

Position Reports

Time Latitude Longitude Heading Altitude Ground
Speed
12-Oct-20 18:19 33.437078 -111.996215 269 1132ft 0kts
12-Oct-20 18:20 33.437078 -111.996215 269 1132ft 0kts
12-Oct-20 18:21 33.437078 -111.996215 269 1132ft 0kts
12-Oct-20 18:22 33.437078 -111.996215 269 1132ft 0kts
12-Oct-20 18:23 33.437078 -111.996215 269 1132ft 0kts
12-Oct-20 18:24 33.437078 -111.996215 269 1132ft 0kts
12-Oct-20 18:25 33.437078 -111.996215 269 1132ft 0kts
12-Oct-20 18:26 33.437078 -111.996215 269 1132ft 0kts
12-Oct-20 18:27 33.437078 -111.996215 269 1132ft 0kts
12-Oct-20 18:28 33.437078 -111.996215 269 1132ft 0kts
12-Oct-20 18:29 33.437078 -111.996215 269 1132ft 0kts
12-Oct-20 18:30 33.437078 -111.996215 269 1132ft 0kts
12-Oct-20 18:31 33.437078 -111.996215 269 1132ft 0kts
12-Oct-20 18:32 33.437078 -111.996215 269 1132ft 0kts
12-Oct-20 18:33 33.437078 -111.996215 269 1132ft 0kts
12-Oct-20 18:34 33.437078 -111.996215 269 1132ft 0kts
12-Oct-20 18:35 33.437078 -111.996215 269 1132ft 0kts
12-Oct-20 18:36 33.437078 -111.996215 269 1132ft 0kts
12-Oct-20 18:37 33.437078 -111.996215 269 1132ft 0kts
12-Oct-20 18:38 33.437078 -111.996215 269 1132ft 0kts
12-Oct-20 18:39 33.437031 -111.995707 308 1132ft 2kts
12-Oct-20 18:40 33.437285 -111.995573 358 1132ft 7kts
12-Oct-20 18:41 33.437778 -111.995578 0 1133ft 0kts
12-Oct-20 18:42 33.437778 -111.995578 0 1133ft 0kts
12-Oct-20 18:43 33.437803 -111.995578 0 1133ft 1kts
12-Oct-20 18:44 33.439704 -111.995033 86 1137ft 9kts
12-Oct-20 18:45 33.440080 -111.992293 6 1138ft 6kts
12-Oct-20 18:46 33.440805 -111.997181 269 1138ft 84kts
12-Oct-20 18:47 33.435592 -112.055617 249 3238ft 215kts
12-Oct-20 18:48 33.411574 -112.130105 249 4749ft 270kts
12-Oct-20 18:49 33.393074 -112.217708 279 7456ft 279kts
12-Oct-20 18:50 33.407134 -112.310461 282 9992ft 290kts
12-Oct-20 18:51 33.422551 -112.413359 282 11290ft 343kts
12-Oct-20 18:52 33.440422 -112.534867 282 12927ft 385kts
12-Oct-20 18:53 33.451024 -112.663667 273 15451ft 398kts
12-Oct-20 18:54 33.454623 -112.798306 279 17766ft 409kts
12-Oct-20 18:55 33.477395 -112.933070 285 19815ft 420kts
12-Oct-20 18:56 33.503229 -113.071021 285 21191ft 432kts
12-Oct-20 18:57 33.528876 -113.210004 285 23382ft 430kts
12-Oct-20 18:58 33.554795 -113.350988 285 24869ft 439kts
12-Oct-20 18:59 33.581139 -113.495301 285 26238ft 446kts
12-Oct-20 19:00 33.608284 -113.641226 286 27443ft 452kts
12-Oct-20 19:01 33.635764 -113.789378 285 27970ft 456kts
12-Oct-20 19:02 33.675515 -113.932388 297 27964ft 451kts
12-Oct-20 19:03 33.728306 -114.069095 297 27965ft 451kts
12-Oct-20 19:04 33.765677 -114.213315 282 27969ft 458kts
12-Oct-20 19:05 33.783376 -114.364867 281 27969ft 458kts
12-Oct-20 19:06 33.800823 -114.516353 281 27969ft 458kts
12-Oct-20 19:07 33.818167 -114.667915 281 27970ft 458kts
12-Oct-20 19:08 33.835342 -114.819880 281 27969ft 458kts
12-Oct-20 19:09 33.852335 -114.971942 281 27969ft 458kts
12-Oct-20 19:10 33.869107 -115.123539 280 27969ft 458kts
12-Oct-20 19:11 33.885752 -115.275304 280 27968ft 457kts
12-Oct-20 19:12 33.902208 -115.426952 280 27952ft 456kts
12-Oct-20 19:13 33.918481 -115.578386 280 27937ft 456kts
12-Oct-20 19:14 33.931695 -115.730196 278 27939ft 457kts
12-Oct-20 19:15 33.942384 -115.882379 278 27311ft 452kts
12-Oct-20 19:16 33.952796 -116.031125 278 26277ft 450kts
12-Oct-20 19:17 33.961961 -116.181004 273 24443ft 444kts
12-Oct-20 19:18 33.949150 -116.327291 265 23988ft 414kts
12-Oct-20 19:19 33.932846 -116.458867 265 22096ft 382kts
12-Oct-20 19:20 33.917293 -116.583356 264 20143ft 374kts
12-Oct-20 19:21 33.901290 -116.707317 263 17809ft 375kts
12-Oct-20 19:22 33.886774 -116.829915 265 15781ft 365kts
12-Oct-20 19:23 33.873812 -116.949655 264 13840ft 355kts
12-Oct-20 19:24 33.860999 -117.065388 263 12112ft 340kts
12-Oct-20 19:25 33.848637 -117.176189 263 10502ft 327kts
12-Oct-20 19:26 33.837202 -117.277934 263 9826ft 287kts
12-Oct-20 19:27 33.826771 -117.370337 263 8472ft 270kts
12-Oct-20 19:28 33.815405 -117.454820 254 8018ft 245kts
12-Oct-20 19:29 33.792894 -117.531815 256 7422ft 238kts
12-Oct-20 19:30 33.776445 -117.604391 256 6444ft 209kts
12-Oct-20 19:31 33.763958 -117.673004 270 4938ft 208kts
12-Oct-20 19:32 33.764071 -117.742585 271 3239ft 206kts
12-Oct-20 19:33 33.761419 -117.799577 249 2560ft 157kts
12-Oct-20 19:34 33.730825 -117.833778 207 1162ft 154kts
12-Oct-20 19:35 33.692798 -117.858006 209 343ft 153kts
12-Oct-20 19:36 33.667585 -117.873240 118 65ft 17kts
12-Oct-20 19:37 33.671038 -117.868928 38 65ft 22kts
12-Oct-20 19:39 33.677088 -117.864591 27 65ft 27kts
12-Oct-20 19:40 33.681066 -117.861755 134 65ft 5kts
12-Oct-20 19:41 33.680850 -117.861506 136 65ft 0kts
12-Oct-20 19:42 33.680850 -117.861506 136 65ft 0kts
12-Oct-20 19:43 33.680850 -117.861506 136 65ft 0kts
12-Oct-20 19:44 33.680850 -117.861506 136 65ft 0kts

Navigation Log

Ident Type
Flight plan parsing failed, navigation log unavailable